Time,TemperatureF,DewpointF,PressureIn,WindDirection,WindDirectionDegrees,WindSpeedMPH,WindSpeedGustMPH,Humidity,HourlyPrecipIn,Conditions,Clouds,dailyrainin,SolarRadiationWatts/m^2,SoftwareType,DateUTC
2013-04-17 00:00:00,52.3,48.2,30.01,West,263,15.0,15.0,86,0.00,,,0.16,0.0,WeatherDisplay:10.37,2013-04-17 04:00:00,
2013-04-17 00:01:00,52.3,48.2,30.01,West,271,15.0,15.0,86,0.00,,,0.16,0.0,WeatherDisplay:10.37,2013-04-17 04:01:00,
2013-04-17 00:04:00,52.0,47.3,30.01,WSW,247,18.4,18.4,84,0.00,RA,,0.00,0.0,WeatherDisplay:10.37,2013-04-17 04:04:00,
2013-04-17 00:09:00,51.9,46.9,30.01,WSW,241,10.4,10.4,83,0.00,RA,,0.00,0.0,WeatherDisplay:10.37,2013-04-17 04:09:00,
2013-04-17 00:14:00,51.7,46.1,30.02,West,259,11.5,11.5,81,0.00,CLR,,0.00,0.0,WeatherDisplay:10.37,2013-04-17 04:14:00,
2013-04-17 00:19:00,51.7,46.4,30.02,West,269,11.5,11.5,82,0.00,CLR,,0.00,0.0,WeatherDisplay:10.37,2013-04-17 04:19:00,
2013-04-17 00:24:00,51.5,46.2,30.02,West,266,15.0,15.0,82,0.00,CLR,,0.00,0.0,WeatherDisplay:10.37,2013-04-17 04:24:00,
2013-04-17 00:29:00,51.2,46.5,30.02,NNW,329,14.0,14.0,84,0.00,CLR,,0.00,0.0,WeatherDisplay:10.37,2013-04-17 04:29:00,
2013-04-17 00:34:00,50.3,43.4,30.03,WNW,288,20.0,20.0,77,0.00,CLR,,0.00,0.0,WeatherDisplay:10.37,2013-04-17 04:34:00,
2013-04-17 00:39:00,49.6,42.7,30.02,West,261,12.7,12.7,77,0.00,CLR,,0.00,0.0,WeatherDisplay:10.37,2013-04-17 04:39:00,
2013-04-17 00:44:00,48.9,42.0,30.03,WSW,252,18.4,18.4,77,0.00,CLR,,0.00,0.0,WeatherDisplay:10.37,2013-04-17 04:44:00,
2013-04-17 00:49:00,48.3,41.8,30.04,WSW,243,12.7,12.7,78,0.00,CLR,,0.00,0.0,WeatherDisplay:10.37,2013-04-17 04:49:00,
2013-04-17 00:54:00,47.8,41.3,30.04,WSW,248,12.7,12.7,78,0.00,CLR,,0.00,0.0,WeatherDisplay:10.37,2013-04-17 04:54:00,
2013-04-17 00:59:00,47.4,41.2,30.04,West,281,12.7,12.7,79,0.00,CLR,,0.00,0.0,WeatherDisplay:10.37,2013-04-17 04:59:00,
2013-04-17 01:04:00,47.1,40.9,30.04,West,261,10.4,10.4,79,0.00,CLR,,0.00,0.0,WeatherDisplay:10.37,2013-04-17 05:04:00,
2013-04-17 01:09:00,46.7,40.9,30.04,WSW,249,13.0,13.0,80,0.00,CLR,,0.00,0.0,WeatherDisplay:10.37,2013-04-17 05:09:00,
2013-04-17 01:14:00,46.5,40.7,30.04,WSW,242,11.5,11.5,80,0.00,CLR,,0.00,0.0,WeatherDisplay:10.37,2013-04-17 05:14:00,
2013-04-17 01:19:00,46.4,40.2,30.04,WNW,297,8.1,8.1,79,0.00,CLR,,0.00,0.0,WeatherDisplay:10.37,2013-04-17 05:19:00,
2013-04-17 01:24:00,46.3,40.5,30.04,West,272,11.5,11.5,80,0.00,CLR,,0.00,0.0,WeatherDisplay:10.37,2013-04-17 05:24:00,
2013-04-17 01:29:00,46.1,40.3,30.05,West,261,11.0,11.0,80,0.00,CLR,,0.00,0.0,WeatherDisplay:10.37,2013-04-17 05:29:00,
2013-04-17 01:34:00,45.9,39.8,30.05,West,275,12.0,12.0,79,0.00,CLR,,0.00,0.0,WeatherDisplay:10.37,2013-04-17 05:34:00,
2013-04-17 01:39:00,45.8,39.7,30.06,WNW,291,15.0,15.0,79,0.00,CLR,,0.00,0.0,WeatherDisplay:10.37,2013-04-17 05:39:00,
2013-04-17 01:44:00,45.6,39.8,30.06,West,263,10.4,10.4,80,0.00,CLR,,0.00,0.0,WeatherDisplay:10.37,2013-04-17 05:44:00,
2013-04-17 01:49:00,45.4,39.6,30.06,West,266,10.4,10.4,80,0.00,CLR,,0.00,0.0,WeatherDisplay:10.37,2013-04-17 05:49:00,
2013-04-17 01:54:00,45.3,39.5,30.06,WSW,255,12.0,12.0,80,0.00,CLR,,0.00,0.0,WeatherDisplay:10.37,2013-04-17 05:54:00,
2013-04-17 01:59:00,45.1,39.6,30.06,West,269,11.5,11.5,81,0.00,CLR,,0.00,0.0,WeatherDisplay:10.37,2013-04-17 05:59:00,
2013-04-17 02:04:00,44.9,39.4,30.06,West,273,11.5,11.5,81,0.00,CLR,,0.00,0.0,WeatherDisplay:10.37,2013-04-17 06:04:00,
2013-04-17 02:09:00,44.7,39.2,30.06,West,275,11.5,11.5,81,0.00,CLR,,0.00,0.0,WeatherDisplay:10.37,2013-04-17 06:09:00,
2013-04-17 02:14:00,44.6,39.1,30.06,West,277,11.5,11.5,81,0.00,CLR,,0.00,0.0,WeatherDisplay:10.37,2013-04-17 06:14:00,
2013-04-17 02:19:00,44.5,39.0,30.06,WSW,251,10.4,10.4,81,0.00,CLR,,0.00,0.0,WeatherDisplay:10.37,2013-04-17 06:19:00,
2013-04-17 02:24:00,44.3,39.2,30.07,WSW,252,10.4,10.4,82,0.00,CLR,,0.00,0.0,WeatherDisplay:10.37,2013-04-17 06:24:00,
2013-04-17 02:29:00,44.1,39.0,30.06,West,269,11.0,11.0,82,0.00,CLR,,0.00,0.0,WeatherDisplay:10.37,2013-04-17 06:29:00,
2013-04-17 02:34:00,44.0,38.9,30.06,West,277,11.5,11.5,82,0.00,CLR,,0.00,0.0,WeatherDisplay:10.37,2013-04-17 06:34:00,
2013-04-17 02:39:00,43.8,39.0,30.06,West,267,8.1,8.1,83,0.00,CLR,,0.00,0.0,WeatherDisplay:10.37,2013-04-17 06:39:00,
2013-04-17 02:44:00,43.7,38.9,30.06,WNW,282,11.5,11.5,83,0.00,CLR,,0.00,0.0,WeatherDisplay:10.37,2013-04-17 06:44:00,
2013-04-17 02:49:00,43.6,38.8,30.07,WSW,245,13.8,13.8,83,0.00,CLR,,0.00,0.0,WeatherDisplay:10.37,2013-04-17 06:49:00,
2013-04-17 02:54:00,43.4,38.6,30.07,WSW,254,13.0,13.0,83,0.00,CLR,,0.00,0.0,WeatherDisplay:10.37,2013-04-17 06:54:00,
2013-04-17 02:59:00,43.4,38.9,30.07,West,270,12.7,12.7,84,0.00,CLR,,0.00,0.0,WeatherDisplay:10.37,2013-04-17 06:59:00,
2013-04-17 03:04:00,43.3,38.8,30.07,WSW,257,12.7,12.7,84,0.00,CLR,,0.00,0.0,WeatherDisplay:10.37,2013-04-17 07:04:00,
2013-04-17 03:09:00,43.2,38.7,30.07,WSW,257,10.4,10.4,84,0.00,CLR,,0.00,0.0,WeatherDisplay:10.37,2013-04-17 07:09:00,
2013-04-17 03:14:00,43.1,38.6,30.07,West,276,10.4,10.4,84,0.00,CLR,,0.00,0.0,WeatherDisplay:10.37,2013-04-17 07:14:00,
2013-04-17 03:19:00,43.0,38.5,30.06,West,269,12.7,12.7,84,0.00,CLR,,0.00,0.0,WeatherDisplay:10.37,2013-04-17 07:19:00,
2013-04-17 03:24:00,42.9,38.4,30.06,WNW,301,15.0,15.0,84,0.00,CLR,,0.00,0.0,WeatherDisplay:10.37,2013-04-17 07:24:00,
2013-04-17 03:29:00,42.7,38.2,30.06,WSW,245,11.5,11.5,84,0.00,CLR,,0.00,0.0,WeatherDisplay:10.37,2013-04-17 07:29:00,
2013-04-17 03:34:00,42.5,38.3,30.07,West,280,14.0,14.0,85,0.00,CLR,,0.00,0.0,WeatherDisplay:10.37,2013-04-17 07:34:00,
2013-04-17 03:39:00,42.4,38.2,30.07,West,279,12.0,12.0,85,0.00,CLR,,0.00,0.0,WeatherDisplay:10.37,2013-04-17 07:39:00,
2013-04-17 03:44:00,42.4,38.2,30.08,West,267,10.4,10.4,85,0.00,CLR,,0.00,0.0,WeatherDisplay:10.37,2013-04-17 07:44:00,
2013-04-17 03:49:00,42.4,38.2,30.08,West,267,10.4,10.4,85,0.00,CLR,,0.00,0.0,WeatherDisplay:10.37,2013-04-17 07:49:00,
2013-04-17 03:54:00,42.3,38.1,30.08,West,272,13.8,13.8,85,0.00,CLR,,0.00,0.0,WeatherDisplay:10.37,2013-04-17 07:54:00,
2013-04-17 03:59:00,42.4,38.2,30.09,West,272,11.5,11.5,85,0.00,CLR,,0.00,0.0,WeatherDisplay:10.37,2013-04-17 07:59:00,
2013-04-17 04:04:00,42.4,38.2,30.09,West,279,10.4,10.4,85,0.00,CLR,,0.00,0.0,WeatherDisplay:10.37,2013-04-17 08:04:00,
2013-04-17 04:09:00,42.4,38.2,30.09,WNW,289,10.4,10.4,85,0.00,CLR,,0.00,0.0,WeatherDisplay:10.37,2013-04-17 08:09:00,
2013-04-17 04:14:00,42.3,38.1,30.09,West,273,8.1,8.1,85,0.00,CLR,,0.00,0.0,WeatherDisplay:10.37,2013-04-17 08:14:00,
2013-04-17 04:19:00,42.3,38.1,30.09,WSW,254,10.4,10.4,85,0.00,CLR,,0.00,0.0,WeatherDisplay:10.37,2013-04-17 08:19:00,
2013-04-17 04:24:00,42.1,37.9,30.09,WNW,284,8.1,8.1,85,0.00,CLR,,0.00,0.0,WeatherDisplay:10.37,2013-04-17 08:24:00,
2013-04-17 04:29:00,41.9,37.4,30.09,West,267,11.5,11.5,84,0.00,CLR,,0.00,0.0,WeatherDisplay:10.37,2013-04-17 08:29:00,
2013-04-17 04:34:00,41.8,37.0,30.09,WNW,290,10.4,10.4,83,0.00,CLR,,0.00,0.0,WeatherDisplay:10.37,2013-04-17 08:34:00,
2013-04-17 04:39:00,41.7,36.9,30.09,NW,309,11.5,11.5,83,0.00,CLR,,0.00,0.0,WeatherDisplay:10.37,2013-04-17 08:39:00,
2013-04-17 04:44:00,41.6,36.5,30.09,WNW,296,12.7,12.7,82,0.00,CLR,,0.00,0.0,WeatherDisplay:10.37,2013-04-17 08:44:00,
2013-04-17 04:49:00,41.6,36.5,30.09,WNW,286,10.4,10.4,82,0.00,CLR,,0.00,0.0,WeatherDisplay:10.37,2013-04-17 08:49:00,
2013-04-17 04:54:00,41.5,36.1,30.09,WSW,257,12.7,12.7,81,0.00,CLR,,0.00,0.0,WeatherDisplay:10.37,2013-04-17 08:54:00,
2013-04-17 04:59:00,41.4,35.7,30.09,West,265,11.5,11.5,80,0.00,CLR,,0.00,0.0,WeatherDisplay:10.37,2013-04-17 08:59:00,
2013-04-17 05:04:00,41.3,35.6,30.09,West,274,8.1,8.1,80,0.00,,,0.00,0.0,WeatherDisplay:10.37,2013-04-17 09:04:00,
2013-04-17 05:09:00,41.1,35.4,30.09,WNW,294,9.2,9.2,80,0.00,,,0.00,0.0,WeatherDisplay:10.37,2013-04-17 09:09:00,
2013-04-17 05:14:00,40.9,35.2,30.10,West,263,9.2,9.2,80,0.00,,,0.00,0.0,WeatherDisplay:10.37,2013-04-17 09:14:00,
2013-04-17 05:19:00,40.7,34.7,30.10,NW,313,11.5,11.5,79,0.00,,,0.00,0.0,WeatherDisplay:10.37,2013-04-17 09:19:00,
2013-04-17 05:24:00,40.5,34.5,30.10,WNW,302,12.7,12.7,79,0.00,,,0.00,0.0,WeatherDisplay:10.37,2013-04-17 09:24:00,
2013-04-17 05:29:00,40.4,34.1,30.10,WSW,257,13.0,13.0,78,0.00,,,0.00,0.0,WeatherDisplay:10.37,2013-04-17 09:29:00,
2013-04-17 05:34:00,40.3,33.7,30.10,West,269,10.4,10.4,77,0.00,,,0.00,0.0,WeatherDisplay:10.37,2013-04-17 09:34:00,
2013-04-17 05:39:00,40.2,33.6,30.10,West,268,10.4,10.4,77,0.00,,,0.00,0.0,WeatherDisplay:10.37,2013-04-17 09:39:00,
2013-04-17 05:44:00,40.1,33.5,30.10,West,276,8.1,8.1,77,0.00,,,0.00,0.0,WeatherDisplay:10.37,2013-04-17 09:44:00,
2013-04-17 05:49:00,39.9,33.3,30.11,West,261,9.0,9.0,77,0.00,,,0.00,0.0,WeatherDisplay:10.37,2013-04-17 09:49:00,
2013-04-17 05:54:00,39.8,32.8,30.11,West,265,12.0,12.0,76,0.00,,,0.00,0.0,WeatherDisplay:10.37,2013-04-17 09:54:00,
2013-04-17 05:59:00,39.7,32.8,30.11,WNW,288,11.5,11.5,76,0.00,,,0.00,0.0,WeatherDisplay:10.37,2013-04-17 09:59:00,
2013-04-17 06:04:00,39.6,32.7,30.11,WNW,288,5.8,5.8,76,0.00,CLR,,0.00,0.0,WeatherDisplay:10.37,2013-04-17 10:04:00,
2013-04-17 06:09:00,39.5,32.6,30.11,West,261,6.9,6.9,76,0.00,CLR,,0.00,5.0,WeatherDisplay:10.37,2013-04-17 10:09:00,
2013-04-17 06:14:00,39.5,32.6,30.11,West,275,8.1,8.1,76,0.00,CLR,,0.00,7.0,WeatherDisplay:10.37,2013-04-17 10:14:00,
2013-04-17 06:19:00,39.4,32.1,30.11,NW,309,10.4,10.4,75,0.00,CLR,,0.00,12.0,WeatherDisplay:10.37,2013-04-17 10:19:00,
2013-04-17 06:24:00,39.4,32.1,30.11,WNW,283,6.0,6.0,75,0.00,CLR,,0.00,16.0,WeatherDisplay:10.37,2013-04-17 10:24:00,
2013-04-17 06:29:00,39.4,32.1,30.11,WNW,293,9.2,9.2,75,0.00,CLR,,0.00,25.0,WeatherDisplay:10.37,2013-04-17 10:29:00,
2013-04-17 06:34:00,39.3,32.0,30.12,West,269,6.0,6.0,75,0.00,CLR,,0.00,39.0,WeatherDisplay:10.37,2013-04-17 10:34:00,
2013-04-17 06:39:00,39.3,31.7,30.12,WSW,252,5.8,5.8,74,0.00,CLR,,0.00,56.0,WeatherDisplay:10.37,2013-04-17 10:39:00,
2013-04-17 06:44:00,39.4,32.1,30.12,WSW,257,5.8,5.8,75,0.00,CLR,,0.00,54.0,WeatherDisplay:10.37,2013-04-17 10:44:00,
2013-04-17 06:49:00,39.3,32.0,30.12,West,279,6.9,6.9,75,0.00,CLR,,0.00,39.0,WeatherDisplay:10.37,2013-04-17 10:49:00,
2013-04-17 06:54:00,39.4,31.8,30.12,WSW,254,8.0,8.0,74,0.00,CLR,,0.00,32.0,WeatherDisplay:10.37,2013-04-17 10:54:00,
2013-04-17 06:59:00,39.4,31.8,30.12,WNW,284,7.0,7.0,74,0.00,CLR,,0.00,63.0,WeatherDisplay:10.37,2013-04-17 10:59:00,
2013-04-17 07:04:00,39.5,31.6,30.13,West,270,11.5,11.5,73,0.00,CLR,,0.00,74.0,WeatherDisplay:10.37,2013-04-17 11:04:00,
2013-04-17 07:09:00,39.6,31.7,30.13,NNW,329,3.5,3.5,73,0.00,CLR,,0.00,65.0,WeatherDisplay:10.37,2013-04-17 11:09:00,
2013-04-17 07:14:00,39.7,31.8,30.14,WNW,300,4.6,4.6,73,0.00,CLR,,0.00,58.0,WeatherDisplay:10.37,2013-04-17 11:14:00,
2013-04-17 07:19:00,39.8,31.5,30.14,West,275,4.6,4.6,72,0.00,CLR,,0.00,69.0,WeatherDisplay:10.37,2013-04-17 11:19:00,
2013-04-17 07:24:00,39.8,31.5,30.14,NNE,12,4.0,4.0,72,0.00,CLR,,0.00,74.0,WeatherDisplay:10.37,2013-04-17 11:24:00,
2013-04-17 07:29:00,39.9,31.6,30.14,WNW,288,3.5,3.5,72,0.00,CLR,,0.00,62.0,WeatherDisplay:10.37,2013-04-17 11:29:00,
2013-04-17 07:34:00,40.0,31.7,30.15,WNW,288,2.0,2.0,72,0.00,CLR,,0.00,88.0,WeatherDisplay:10.37,2013-04-17 11:34:00,
2013-04-17 07:39:00,40.1,31.8,30.15,WNW,300,5.8,5.8,72,0.00,CLR,,0.00,160.0,WeatherDisplay:10.37,2013-04-17 11:39:00,
2013-04-17 07:44:00,40.2,31.5,30.16,West,279,6.0,6.0,71,0.00,CLR,,0.00,199.0,WeatherDisplay:10.37,2013-04-17 11:44:00,
2013-04-17 07:49:00,40.3,31.6,30.16,NW,313,6.0,6.0,71,0.00,CLR,,0.00,221.0,WeatherDisplay:10.37,2013-04-17 11:49:00,
2013-04-17 07:54:00,40.5,31.5,30.16,NW,311,3.5,3.5,70,0.00,CLR,,0.00,295.0,WeatherDisplay:10.37,2013-04-17 11:54:00,
2013-04-17 07:59:00,40.7,31.7,30.16,WNW,283,3.5,3.5,70,0.00,CLR,,0.00,343.0,WeatherDisplay:10.37,2013-04-17 11:59:00,
2013-04-17 08:04:00,41.0,31.6,30.16,WSW,252,6.0,6.0,69,0.00,OVC,,0.00,364.0,WeatherDisplay:10.37,2013-04-17 12:04:00,
2013-04-17 08:09:00,41.2,31.8,30.16,NW,308,5.0,5.0,69,0.00,OVC,,0.00,380.0,WeatherDisplay:10.37,2013-04-17 12:09:00,
2013-04-17 08:14:00,41.5,32.4,30.16,NW,317,7.0,7.0,70,0.00,OVC,,0.00,399.0,WeatherDisplay:10.37,2013-04-17 12:14:00,
2013-04-17 08:19:00,41.8,32.0,30.16,NW,320,5.8,5.8,68,0.00,OVC,,0.00,413.0,WeatherDisplay:10.37,2013-04-17 12:19:00,
2013-04-17 08:24:00,42.1,32.3,30.16,WSW,257,8.0,8.0,68,0.00,OVC,,0.00,432.0,WeatherDisplay:10.37,2013-04-17 12:24:00,
2013-04-17 08:29:00,42.2,32.0,30.16,WNW,284,5.8,5.8,67,0.00,OVC,,0.00,448.0,WeatherDisplay:10.37,2013-04-17 12:29:00,
2013-04-17 08:34:00,42.3,32.5,30.16,West,279,6.9,6.9,68,0.00,OVC,,0.00,466.0,WeatherDisplay:10.37,2013-04-17 12:34:00,
2013-04-17 08:39:00,42.4,32.2,30.17,WSW,249,9.0,9.0,67,0.00,OVC,,0.00,483.0,WeatherDisplay:10.37,2013-04-17 12:39:00,
2013-04-17 08:44:00,42.5,31.9,30.17,NW,323,11.5,11.5,66,0.00,OVC,,0.00,501.0,WeatherDisplay:10.37,2013-04-17 12:44:00,
2013-04-17 08:49:00,42.5,32.3,30.17,WNW,300,10.4,10.4,67,0.00,OVC,,0.00,519.0,WeatherDisplay:10.37,2013-04-17 12:49:00,
2013-04-17 08:54:00,42.7,32.5,30.17,NW,314,5.8,5.8,67,0.00,OVC,,0.00,552.0,WeatherDisplay:10.37,2013-04-17 12:54:00,
2013-04-17 08:59:00,42.8,32.6,30.17,WNW,290,6.9,6.9,67,0.00,OVC,,0.00,554.0,WeatherDisplay:10.37,2013-04-17 12:59:00,
2013-04-17 09:04:00,43.0,32.4,30.17,NW,321,8.0,8.0,66,0.00,OVC,,0.00,566.0,WeatherDisplay:10.37,2013-04-17 13:04:00,
2013-04-17 09:09:00,43.3,32.7,30.17,NNE,32,5.8,5.8,66,0.00,OVC,,0.00,596.0,WeatherDisplay:10.37,2013-04-17 13:09:00,
2013-04-17 09:14:00,43.6,33.0,30.17,NW,309,6.0,6.0,66,0.00,OVC,,0.00,601.0,WeatherDisplay:10.37,2013-04-17 13:14:00,
2013-04-17 09:19:00,43.9,33.3,30.17,North,360,6.9,6.9,66,0.00,OVC,,0.00,615.0,WeatherDisplay:10.37,2013-04-17 13:19:00,
2013-04-17 09:24:00,44.1,33.5,30.17,North,360,7.0,7.0,66,0.00,OVC,,0.00,645.0,WeatherDisplay:10.37,2013-04-17 13:24:00,
2013-04-17 09:29:00,44.2,32.8,30.17,NW,317,9.2,9.2,64,0.00,OVC,,0.00,649.0,WeatherDisplay:10.37,2013-04-17 13:29:00,
2013-04-17 09:34:00,44.2,33.6,30.17,West,278,6.0,6.0,66,0.00,OVC,,0.00,663.0,WeatherDisplay:10.37,2013-04-17 13:34:00,
2013-04-17 09:39:00,44.6,33.6,30.17,West,279,10.0,10.0,65,0.00,OVC,,0.00,675.0,WeatherDisplay:10.37,2013-04-17 13:39:00,
2013-04-17 09:44:00,44.7,32.9,30.17,NNW,329,9.0,9.0,63,0.00,OVC,,0.00,682.0,WeatherDisplay:10.37,2013-04-17 13:44:00,
2013-04-17 09:49:00,44.9,33.1,30.17,NNW,336,6.9,6.9,63,0.00,OVC,,0.00,694.0,WeatherDisplay:10.37,2013-04-17 13:49:00,
2013-04-17 09:54:00,45.2,32.9,30.18,West,273,10.4,10.4,62,0.00,OVC,,0.00,708.0,WeatherDisplay:10.37,2013-04-17 13:54:00,
2013-04-17 09:59:00,45.2,33.7,30.17,NW,315,5.8,5.8,64,0.00,OVC,,0.00,719.0,WeatherDisplay:10.37,2013-04-17 13:59:00,
2013-04-17 10:04:00,45.4,33.9,30.17,NW,314,6.0,6.0,64,0.00,OVC,,0.00,735.0,WeatherDisplay:10.37,2013-04-17 14:04:00,
2013-04-17 10:09:00,45.8,33.5,30.17,NW,309,8.1,8.1,62,0.00,BKN,,0.00,744.0,WeatherDisplay:10.37,2013-04-17 14:09:00,
2013-04-17 10:14:00,46.0,32.9,30.17,North,9,11.5,11.5,60,0.00,SCT,,0.00,758.0,WeatherDisplay:10.37,2013-04-17 14:14:00,
2013-04-17 10:19:00,46.2,33.1,30.18,NW,309,7.0,7.0,60,0.00,CLR,,0.00,766.0,WeatherDisplay:10.37,2013-04-17 14:19:00,
2013-04-17 10:24:00,46.3,33.2,30.18,NNE,17,8.1,8.1,60,0.00,CLR,,0.00,780.0,WeatherDisplay:10.37,2013-04-17 14:24:00,
2013-04-17 10:29:00,46.5,33.8,30.18,North,349,11.5,11.5,61,0.00,CLR,,0.00,805.0,WeatherDisplay:10.37,2013-04-17 14:29:00,
2013-04-17 10:34:00,46.6,33.0,30.19,NNW,329,10.4,10.4,59,0.00,CLR,,0.00,802.0,WeatherDisplay:10.37,2013-04-17 14:34:00,
2013-04-17 10:39:00,46.7,33.5,30.18,West,264,5.8,5.8,60,0.00,CLR,,0.00,812.0,WeatherDisplay:10.37,2013-04-17 14:39:00,
2013-04-17 10:44:00,47.3,33.7,30.18,East,90,8.1,8.1,59,0.00,CLR,,0.00,821.0,WeatherDisplay:10.37,2013-04-17 14:44:00,
2013-04-17 10:49:00,47.5,33.0,30.18,WNW,293,8.1,8.1,57,0.00,CLR,,0.00,830.0,WeatherDisplay:10.37,2013-04-17 14:49:00,
2013-04-17 10:54:00,47.7,34.1,30.18,WNW,291,9.2,9.2,59,0.00,CLR,,0.00,872.0,WeatherDisplay:10.37,2013-04-17 14:54:00,
2013-04-17 10:59:00,47.9,33.4,30.19,West,264,6.9,6.9,57,0.00,CLR,,0.00,860.0,WeatherDisplay:10.37,2013-04-17 14:59:00,
2013-04-17 11:04:00,47.9,33.8,30.19,NNE,28,9.2,9.2,58,0.00,CLR,,0.00,881.0,WeatherDisplay:10.37,2013-04-17 15:04:00,
2013-04-17 11:09:00,47.9,33.4,30.19,North,5,10.4,10.4,57,0.00,CLR,,0.00,951.0,WeatherDisplay:10.37,2013-04-17 15:09:00,
2013-04-17 11:14:00,48.0,33.9,30.19,NW,304,6.9,6.9,58,0.00,CLR,,0.00,983.0,WeatherDisplay:10.37,2013-04-17 15:14:00,
2013-04-17 11:19:00,48.1,34.4,30.19,NNW,340,9.0,9.0,59,0.00,CLR,,0.00,977.0,WeatherDisplay:10.37,2013-04-17 15:19:00,
2013-04-17 11:24:00,48.4,34.3,30.19,WNW,296,5.8,5.8,58,0.00,CLR,,0.00,905.0,WeatherDisplay:10.37,2013-04-17 15:24:00,
2013-04-17 11:29:00,48.5,34.4,30.19,West,263,17.3,17.3,58,0.00,CLR,,0.00,933.0,WeatherDisplay:10.37,2013-04-17 15:29:00,
2013-04-17 11:34:00,48.2,35.0,30.19,NW,325,9.0,9.0,60,0.00,CLR,,0.00,904.0,WeatherDisplay:10.37,2013-04-17 15:34:00,
2013-04-17 11:40:00,48.4,35.6,30.19,NW,306,4.6,4.6,61,0.00,CLR,,0.00,933.0,WeatherDisplay:10.37,2013-04-17 15:40:00,
2013-04-17 11:44:00,48.7,33.7,30.19,NW,326,11.0,11.0,56,0.00,CLR,,0.00,963.0,WeatherDisplay:10.37,2013-04-17 15:44:00,
2013-04-17 11:49:00,48.7,33.7,30.19,NNW,334,9.2,9.2,56,0.00,CLR,,0.00,930.0,WeatherDisplay:10.37,2013-04-17 15:49:00,
2013-04-17 11:54:00,48.8,34.7,30.19,WNW,294,6.9,6.9,58,0.00,CLR,,0.00,925.0,WeatherDisplay:10.37,2013-04-17 15:54:00,
2013-04-17 11:59:00,48.9,34.3,30.19,NNW,331,4.6,4.6,57,0.00,CLR,,0.00,926.0,WeatherDisplay:10.37,2013-04-17 15:59:00,
2013-04-17 12:05:00,49.0,34.0,30.19,North,5,7.0,7.0,56,0.00,CLR,,0.00,933.0,WeatherDisplay:10.37,2013-04-17 16:05:00,
2013-04-17 12:10:00,49.2,34.2,30.19,NNW,343,9.2,9.2,56,0.00,CLR,,0.00,947.0,WeatherDisplay:10.37,2013-04-17 16:10:00,
2013-04-17 12:15:00,49.5,34.4,30.19,NNW,333,9.0,9.0,56,0.00,CLR,,0.00,942.0,WeatherDisplay:10.37,2013-04-17 16:15:00,
2013-04-17 12:20:00,49.8,33.8,30.19,NNW,344,6.0,6.0,54,0.00,CLR,,0.00,949.0,WeatherDisplay:10.37,2013-04-17 16:20:00,
2013-04-17 12:25:00,50.1,34.1,30.19,WNW,300,10.0,10.0,54,0.00,CLR,,0.00,970.0,WeatherDisplay:10.37,2013-04-17 16:25:00,
2013-04-17 12:30:00,50.1,34.1,30.19,NNW,333,8.0,8.0,54,0.00,CLR,,0.00,946.0,WeatherDisplay:10.37,2013-04-17 16:30:00,
2013-04-17 12:35:00,50.1,34.1,30.19,NNW,336,3.5,3.5,54,0.00,CLR,,0.00,942.0,WeatherDisplay:10.37,2013-04-17 16:35:00,
2013-04-17 12:40:00,50.3,33.8,30.19,West,270,10.0,10.0,53,0.00,CLR,,0.00,947.0,WeatherDisplay:10.37,2013-04-17 16:40:00,
2013-04-17 12:45:00,50.1,33.1,30.19,SW,218,10.0,10.0,52,0.00,CLR,,0.00,944.0,WeatherDisplay:10.37,2013-04-17 16:45:00,
2013-04-17 12:50:00,50.0,34.0,30.19,NNW,327,10.4,10.4,54,0.00,CLR,,0.00,944.0,WeatherDisplay:10.37,2013-04-17 16:50:00,
2013-04-17 12:55:00,50.4,33.9,30.19,NNW,346,4.6,4.6,53,0.00,CLR,,0.00,942.0,WeatherDisplay:10.37,2013-04-17 16:55:00,
2013-04-17 13:00:00,50.7,33.2,30.19,NNW,329,10.4,10.4,51,0.00,CLR,,0.00,947.0,WeatherDisplay:10.37,2013-04-17 17:00:00,
2013-04-17 13:05:00,50.8,33.8,30.19,West,279,12.0,12.0,52,0.00,CLR,,0.00,940.0,WeatherDisplay:10.37,2013-04-17 17:05:00,
2013-04-17 13:10:00,50.8,33.3,30.19,NNW,332,8.1,8.1,51,0.00,CLR,,0.00,944.0,WeatherDisplay:10.37,2013-04-17 17:10:00,
2013-04-17 13:15:00,50.7,33.2,30.19,WNW,284,11.5,11.5,51,0.00,CLR,,0.00,942.0,WeatherDisplay:10.37,2013-04-17 17:15:00,
2013-04-17 13:20:00,50.7,32.7,30.19,NNW,327,11.5,11.5,50,0.00,CLR,,0.00,937.0,WeatherDisplay:10.37,2013-04-17 17:20:00,
2013-04-17 13:25:00,51.0,33.0,30.19,West,267,11.5,11.5,50,0.00,CLR,,0.00,932.0,WeatherDisplay:10.37,2013-04-17 17:25:00,
2013-04-17 13:30:00,50.9,30.8,30.19,NW,304,10.4,10.4,46,0.00,CLR,,0.00,925.0,WeatherDisplay:10.37,2013-04-17 17:30:00,
2013-04-17 13:35:00,51.1,31.6,30.18,ENE,76,8.1,8.1,47,0.00,CLR,,0.00,923.0,WeatherDisplay:10.37,2013-04-17 17:35:00,
2013-04-17 13:40:00,51.3,30.1,30.19,NNW,340,16.1,16.1,44,0.00,CLR,,0.00,921.0,WeatherDisplay:10.37,2013-04-17 17:40:00,
2013-04-17 13:45:00,51.3,31.7,30.19,WNW,289,9.2,9.2,47,0.00,CLR,,0.00,911.0,WeatherDisplay:10.37,2013-04-17 17:45:00,
2013-04-17 13:50:00,51.3,33.3,30.19,WSW,242,10.4,10.4,50,0.00,CLR,,0.00,909.0,WeatherDisplay:10.37,2013-04-17 17:50:00,
2013-04-17 13:55:00,51.6,33.0,30.19,North,350,6.0,6.0,49,0.00,CLR,,0.00,902.0,WeatherDisplay:10.37,2013-04-17 17:55:00,
2013-04-17 14:00:00,51.9,31.7,30.19,WNW,291,9.2,9.2,46,0.00,CLR,,0.00,900.0,WeatherDisplay:10.37,2013-04-17 18:00:00,
2013-04-17 14:05:00,51.9,31.7,30.19,WNW,303,11.5,11.5,46,0.00,CLR,,0.00,889.0,WeatherDisplay:10.37,2013-04-17 18:05:00,
2013-04-17 14:10:00,51.8,29.4,30.19,West,280,11.0,11.0,42,0.00,CLR,,0.00,886.0,WeatherDisplay:10.37,2013-04-17 18:10:00,
2013-04-17 14:15:00,51.6,31.5,30.19,NW,313,11.5,11.5,46,0.00,CLR,,0.00,875.0,WeatherDisplay:10.37,2013-04-17 18:15:00,
2013-04-17 14:20:00,51.7,32.1,30.20,North,351,7.0,7.0,47,0.00,CLR,,0.00,872.0,WeatherDisplay:10.37,2013-04-17 18:20:00,
2013-04-17 14:25:00,51.9,31.2,30.21,WNW,286,15.0,15.0,45,0.00,CLR,,0.00,863.0,WeatherDisplay:10.37,2013-04-17 18:25:00,
2013-04-17 14:30:00,51.8,31.1,30.20,North,5,9.2,9.2,45,0.00,CLR,,0.00,854.0,WeatherDisplay:10.37,2013-04-17 18:30:00,
2013-04-17 14:35:00,51.9,30.1,30.20,NW,319,8.1,8.1,43,0.00,CLR,,0.00,846.0,WeatherDisplay:10.37,2013-04-17 18:35:00,
2013-04-17 14:40:00,52.1,31.4,30.20,North,355,9.2,9.2,45,0.00,CLR,,0.00,838.0,WeatherDisplay:10.37,2013-04-17 18:40:00,
2013-04-17 14:45:00,52.3,30.4,30.21,NW,321,6.0,6.0,43,0.00,CLR,,0.00,826.0,WeatherDisplay:10.37,2013-04-17 18:45:00,
2013-04-17 14:50:00,52.4,29.4,30.21,West,271,13.0,13.0,41,0.00,CLR,,0.00,816.0,WeatherDisplay:10.37,2013-04-17 18:50:00,
2013-04-17 14:55:00,52.4,30.5,30.21,NW,321,10.0,10.0,43,0.00,CLR,,0.00,803.0,WeatherDisplay:10.37,2013-04-17 18:55:00,
2013-04-17 15:00:00,52.6,30.1,30.21,North,355,9.2,9.2,42,0.00,CLR,,0.00,798.0,WeatherDisplay:10.37,2013-04-17 19:00:00,
2013-04-17 15:05:00,52.7,30.2,30.21,West,279,7.0,7.0,42,0.00,CLR,,0.00,786.0,WeatherDisplay:10.37,2013-04-17 19:05:00,
2013-04-17 15:10:00,53.1,30.6,30.21,NNW,333,9.0,9.0,42,0.00,CLR,,0.00,775.0,WeatherDisplay:10.37,2013-04-17 19:10:00,
2013-04-17 15:15:00,53.2,28.9,30.21,WNW,300,12.0,12.0,39,0.00,CLR,,0.00,766.0,WeatherDisplay:10.37,2013-04-17 19:15:00,
2013-04-17 15:20:00,53.0,29.9,30.21,North,9,7.0,7.0,41,0.00,CLR,,0.00,758.0,WeatherDisplay:10.37,2013-04-17 19:20:00,
2013-04-17 15:25:00,53.2,29.5,30.22,NNE,30,10.0,10.0,40,0.00,CLR,,0.00,700.0,WeatherDisplay:10.37,2013-04-17 19:25:00,
2013-04-17 15:30:00,53.1,30.6,30.21,NE,42,10.4,10.4,42,0.00,FEW,,0.00,728.0,WeatherDisplay:10.37,2013-04-17 19:30:00,
2013-04-17 15:35:00,53.3,29.6,30.21,WNW,302,10.4,10.4,40,0.00,FEW,,0.00,717.0,WeatherDisplay:10.37,2013-04-17 19:35:00,
2013-04-17 15:40:00,53.5,30.4,30.22,WNW,296,10.4,10.4,41,0.00,FEW,,0.00,707.0,WeatherDisplay:10.37,2013-04-17 19:40:00,
2013-04-17 15:45:00,53.3,29.6,30.22,NW,325,9.2,9.2,40,0.00,FEW,,0.00,687.0,WeatherDisplay:10.37,2013-04-17 19:45:00,
2013-04-17 15:50:00,53.7,30.5,30.21,North,9,8.1,8.1,41,0.00,FEW,,0.00,679.0,WeatherDisplay:10.37,2013-04-17 19:50:00,
2013-04-17 15:55:00,54.0,30.8,30.21,ENE,78,9.2,9.2,41,0.00,FEW,,0.00,663.0,WeatherDisplay:10.37,2013-04-17 19:55:00,
2013-04-17 16:00:00,54.1,31.5,30.21,North,5,9.2,9.2,42,0.00,FEW,,0.00,650.0,WeatherDisplay:10.37,2013-04-17 20:00:00,
2013-04-17 16:05:00,54.2,30.4,30.21,WSW,249,9.2,9.2,40,0.00,SCT,,0.00,635.0,WeatherDisplay:10.37,2013-04-17 20:05:00,
2013-04-17 16:10:00,54.2,29.1,30.21,NNW,329,11.5,11.5,38,0.00,SCT,,0.00,573.0,WeatherDisplay:10.37,2013-04-17 20:10:00,
2013-04-17 16:15:00,54.0,29.6,30.21,West,281,4.6,4.6,39,0.00,SCT,,0.00,596.0,WeatherDisplay:10.37,2013-04-17 20:15:00,
2013-04-17 16:20:00,54.0,28.9,30.21,NW,308,6.9,6.9,38,0.00,SCT,,0.00,591.0,WeatherDisplay:10.37,2013-04-17 20:20:00,
2013-04-17 16:25:00,53.7,30.5,30.21,WNW,289,11.5,11.5,41,0.00,SCT,,0.00,575.0,WeatherDisplay:10.37,2013-04-17 20:25:00,
2013-04-17 16:30:00,53.6,28.6,30.21,NNE,15,10.4,10.4,38,0.00,SCT,,0.00,559.0,WeatherDisplay:10.37,2013-04-17 20:30:00,
2013-04-17 16:35:00,53.5,29.1,30.22,North,355,9.2,9.2,39,0.00,SCT,,0.00,543.0,WeatherDisplay:10.37,2013-04-17 20:35:00,
2013-04-17 16:40:00,53.7,29.9,30.22,NW,313,8.0,8.0,40,0.00,SCT,,0.00,422.0,WeatherDisplay:10.37,2013-04-17 20:40:00,
2013-04-17 16:45:00,53.8,30.0,30.22,NW,307,10.4,10.4,40,0.00,SCT,,0.00,336.0,WeatherDisplay:10.37,2013-04-17 20:45:00,
2013-04-17 16:50:00,53.6,29.2,30.23,WNW,284,9.2,9.2,39,0.00,BKN,,0.00,336.0,WeatherDisplay:10.37,2013-04-17 20:50:00,
2013-04-17 16:55:00,53.5,30.4,30.23,NNW,333,6.9,6.9,41,0.00,BKN,,0.00,309.0,WeatherDisplay:10.37,2013-04-17 20:55:00,
2013-04-17 17:00:00,53.3,28.9,30.23,NW,313,5.0,0.0,39,0.00,BKN,,0.00,221.0,WeatherDisplay:10.37,2013-04-17 21:00:00,
2013-04-17 17:05:00,53.3,30.2,30.23,ENE,71,9.2,9.2,41,0.00,BKN,,0.00,339.0,WeatherDisplay:10.37,2013-04-17 21:05:00,
2013-04-17 17:10:00,53.2,30.7,30.23,West,267,8.0,8.0,42,0.00,BKN,,0.00,158.0,WeatherDisplay:10.37,2013-04-17 21:10:00,
2013-04-17 17:15:00,52.9,30.4,30.23,North,355,10.4,10.4,42,0.00,BKN,,0.00,142.0,WeatherDisplay:10.37,2013-04-17 21:15:00,
2013-04-17 17:20:00,52.6,30.7,30.23,WNW,288,5.8,5.8,43,0.00,BKN,,0.00,290.0,WeatherDisplay:10.37,2013-04-17 21:20:00,
2013-04-17 17:25:00,52.7,29.6,30.23,NNW,328,4.6,4.6,41,0.00,BKN,,0.00,214.0,WeatherDisplay:10.37,2013-04-17 21:25:00,
2013-04-17 17:30:00,52.8,30.9,30.23,WNW,294,6.0,6.0,43,0.00,BKN,,0.00,260.0,WeatherDisplay:10.37,2013-04-17 21:30:00,
2013-04-17 17:35:00,52.6,29.5,30.24,West,261,9.2,9.2,41,0.00,BKN,,0.00,111.0,WeatherDisplay:10.37,2013-04-17 21:35:00,
2013-04-17 17:40:00,52.4,30.0,30.24,WNW,303,19.0,19.0,42,0.00,BKN,,0.00,95.0,WeatherDisplay:10.37,2013-04-17 21:40:00,
2013-04-17 17:45:00,51.9,28.9,30.24,West,259,9.0,9.0,41,0.00,BKN,,0.00,79.0,WeatherDisplay:10.37,2013-04-17 21:45:00,
2013-04-17 17:50:00,51.5,29.1,30.24,West,274,11.5,11.5,42,0.00,BKN,,0.00,162.0,WeatherDisplay:10.37,2013-04-17 21:50:00,
2013-04-17 17:55:00,51.3,30.1,30.24,WSW,248,9.2,9.2,44,0.00,BKN,,0.00,172.0,WeatherDisplay:10.37,2013-04-17 21:55:00,
2013-04-17 18:00:00,51.3,30.1,30.24,West,273,9.2,9.2,44,0.00,BKN,,0.00,188.0,WeatherDisplay:10.37,2013-04-17 22:00:00,
2013-04-17 18:05:00,51.3,30.1,30.24,NNW,333,5.0,5.0,44,0.00,BKN,,0.00,137.0,WeatherDisplay:10.37,2013-04-17 22:05:00,
2013-04-17 18:10:00,51.2,30.0,30.25,NNW,336,8.1,8.1,44,0.00,BKN,,0.00,132.0,WeatherDisplay:10.37,2013-04-17 22:10:00,
2013-04-17 18:15:00,51.3,30.7,30.25,NNW,335,6.9,6.9,45,0.00,BKN,,0.00,107.0,WeatherDisplay:10.37,2013-04-17 22:15:00,
2013-04-17 18:20:00,51.2,30.6,30.25,NW,317,4.6,4.6,45,0.00,BKN,,0.00,72.0,WeatherDisplay:10.37,2013-04-17 22:20:00,
2013-04-17 18:25:00,51.1,31.0,30.25,NW,322,3.5,3.5,46,0.00,BKN,,0.00,69.0,WeatherDisplay:10.37,2013-04-17 22:25:00,
2013-04-17 18:30:00,50.8,30.7,30.25,West,275,6.9,6.9,46,0.00,BKN,,0.00,104.0,WeatherDisplay:10.37,2013-04-17 22:30:00,
2013-04-17 18:35:00,50.6,30.6,30.25,NNW,344,3.5,3.5,46,0.00,BKN,,0.00,127.0,WeatherDisplay:10.37,2013-04-17 22:35:00,
2013-04-17 18:40:00,50.7,30.7,30.25,WNW,288,8.1,8.1,46,0.00,BKN,,0.00,163.0,WeatherDisplay:10.37,2013-04-17 22:40:00,
2013-04-17 18:45:00,50.7,30.7,30.25,West,259,6.9,6.9,46,0.00,BKN,,0.00,151.0,WeatherDisplay:10.37,2013-04-17 22:45:00,
2013-04-17 18:50:00,50.6,31.1,30.25,NW,306,5.8,5.8,47,0.00,BKN,,0.00,144.0,WeatherDisplay:10.37,2013-04-17 22:50:00,
2013-04-17 18:55:00,50.6,31.1,30.25,West,274,6.9,6.9,47,0.00,BKN,,0.00,107.0,WeatherDisplay:10.37,2013-04-17 22:55:00,
2013-04-17 19:00:00,50.4,30.9,30.25,West,275,5.0,5.0,47,0.00,BKN,,0.00,86.0,WeatherDisplay:10.37,2013-04-17 23:00:00,
2013-04-17 19:05:00,50.2,30.7,30.25,West,271,8.1,8.1,47,0.00,BKN,,0.00,70.0,WeatherDisplay:10.37,2013-04-17 23:05:00,
2013-04-17 19:10:00,50.0,31.1,30.26,West,269,6.0,6.0,48,0.00,CLR,,0.00,42.0,WeatherDisplay:10.37,2013-04-17 23:10:00,
2013-04-17 19:15:00,49.7,30.8,30.26,West,269,4.6,4.6,48,0.00,CLR,,0.00,26.0,WeatherDisplay:10.37,2013-04-17 23:15:00,
2013-04-17 19:20:00,49.4,31.0,30.26,West,270,4.6,4.6,49,0.00,CLR,,0.00,18.0,WeatherDisplay:10.37,2013-04-17 23:20:00,
2013-04-17 19:26:00,49.0,31.2,30.26,West,271,20.0,20.0,50,0.00,CLR,,0.00,9.0,WeatherDisplay:10.37,2013-04-17 23:26:00,
2013-04-17 19:32:00,48.6,30.3,30.26,West,267,4.6,4.6,49,0.00,CLR,,0.00,7.0,WeatherDisplay:10.37,2013-04-17 23:32:00,
2013-04-17 19:37:00,48.2,30.4,30.26,West,267,4.0,4.0,50,0.00,CLR,,0.00,0.0,WeatherDisplay:10.37,2013-04-17 23:37:00,
2013-04-17 19:42:00,47.8,30.5,30.26,West,281,3.0,3.0,51,0.00,CLR,,0.00,0.0,WeatherDisplay:10.37,2013-04-17 23:42:00,
2013-04-17 19:47:00,47.6,30.3,30.26,West,276,4.6,4.6,51,0.00,CLR,,0.00,0.0,WeatherDisplay:10.37,2013-04-17 23:47:00,
2013-04-17 19:52:00,47.2,30.5,30.27,West,263,3.5,3.5,52,0.00,CLR,,0.00,0.0,WeatherDisplay:10.37,2013-04-17 23:52:00,
2013-04-17 19:57:00,47.0,30.3,30.27,West,265,4.0,4.0,52,0.00,CLR,,0.00,0.0,WeatherDisplay:10.37,2013-04-17 23:57:00,
2013-04-17 20:02:00,46.8,30.6,30.27,West,265,3.5,3.5,53,0.00,,,0.00,0.0,WeatherDisplay:10.37,2013-04-18 00:02:00,
2013-04-17 20:07:00,46.5,30.3,30.27,West,268,2.3,2.3,53,0.00,CLR,,0.00,0.0,WeatherDisplay:10.37,2013-04-18 00:07:00,
2013-04-17 20:12:00,46.3,31.4,30.27,West,268,0.0,0.0,56,0.00,CLR,,0.00,0.0,WeatherDisplay:10.37,2013-04-18 00:12:00,
2013-04-17 20:17:00,45.7,31.8,30.27,West,268,1.2,0.0,58,0.00,CLR,,0.00,0.0,WeatherDisplay:10.37,2013-04-18 00:17:00,
2013-04-17 20:22:00,45.2,31.7,30.27,West,268,0.0,0.0,59,0.00,CLR,,0.00,0.0,WeatherDisplay:10.37,2013-04-18 00:22:00,
2013-04-17 20:27:00,44.9,32.3,30.27,West,268,3.5,3.5,61,0.00,CLR,,0.00,0.0,WeatherDisplay:10.37,2013-04-18 00:27:00,
2013-04-17 20:32:00,44.3,32.9,30.27,West,268,2.3,2.3,64,0.00,CLR,,0.00,0.0,WeatherDisplay:10.37,2013-04-18 00:32:00,
2013-04-17 20:37:00,43.7,33.1,30.27,West,268,0.0,0.0,66,0.00,CLR,,0.00,0.0,WeatherDisplay:10.37,2013-04-18 00:37:00,
2013-04-17 20:42:00,43.3,32.3,30.26,West,268,0.0,0.0,65,0.00,CLR,,0.00,0.0,WeatherDisplay:10.37,2013-04-18 00:42:00,
2013-04-17 20:47:00,42.8,32.2,30.26,West,268,2.3,2.3,66,0.00,CLR,,0.00,0.0,WeatherDisplay:10.37,2013-04-18 00:47:00,
2013-04-17 20:52:00,42.3,32.5,30.26,West,268,2.3,0.0,68,0.00,CLR,,0.00,0.0,WeatherDisplay:10.37,2013-04-18 00:52:00,
2013-04-17 20:57:00,41.9,32.1,30.26,West,268,0.0,0.0,68,0.00,CLR,,0.00,0.0,WeatherDisplay:10.37,2013-04-18 00:57:00,
2013-04-17 21:02:00,41.5,31.7,30.27,West,268,0.0,0.0,68,0.00,,,0.00,0.0,WeatherDisplay:10.37,2013-04-18 01:02:00,
2013-04-17 21:07:00,41.1,32.1,30.27,West,268,1.2,1.2,70,0.00,,,0.00,0.0,WeatherDisplay:10.37,2013-04-18 01:07:00,
2013-04-17 21:12:00,40.5,31.8,30.28,West,268,2.3,2.3,71,0.00,,,0.00,0.0,WeatherDisplay:10.37,2013-04-18 01:12:00,
2013-04-17 21:17:00,39.9,31.6,30.27,West,268,2.3,2.3,72,0.00,,,0.00,0.0,WeatherDisplay:10.37,2013-04-18 01:17:00,
2013-04-17 21:22:00,39.6,31.3,30.27,West,268,1.2,0.0,72,0.00,,,0.00,0.0,WeatherDisplay:10.37,2013-04-18 01:22:00,
2013-04-17 21:27:00,39.3,31.4,30.27,West,268,1.2,1.2,73,0.00,,,0.00,0.0,WeatherDisplay:10.37,2013-04-18 01:27:00,
2013-04-17 21:32:00,39.1,31.5,30.27,West,268,2.0,2.0,74,0.00,,,0.00,0.0,WeatherDisplay:10.37,2013-04-18 01:32:00,
2013-04-17 21:37:00,38.5,31.3,30.28,West,268,1.2,0.0,75,0.00,,,0.00,0.0,WeatherDisplay:10.37,2013-04-18 01:37:00,
2013-04-17 21:42:00,38.3,31.4,30.27,West,268,2.3,2.3,76,0.00,,,0.00,0.0,WeatherDisplay:10.37,2013-04-18 01:42:00,
2013-04-17 21:47:00,38.1,31.2,30.27,West,268,0.0,0.0,76,0.00,,,0.00,0.0,WeatherDisplay:10.37,2013-04-18 01:47:00,
2013-04-17 21:52:00,38.0,31.1,30.27,West,268,1.2,1.2,76,0.00,,,0.00,0.0,WeatherDisplay:10.37,2013-04-18 01:52:00,
2013-04-17 21:57:00,37.9,31.3,30.28,West,268,2.3,2.3,77,0.00,,,0.00,0.0,WeatherDisplay:10.37,2013-04-18 01:57:00,
2013-04-17 22:02:00,37.6,31.0,30.28,West,268,2.3,2.3,77,0.00,,,0.00,0.0,WeatherDisplay:10.37,2013-04-18 02:02:00,
2013-04-17 22:07:00,37.4,31.2,30.28,West,268,2.3,2.3,78,0.00,,,0.00,0.0,WeatherDisplay:10.37,2013-04-18 02:07:00,
2013-04-17 22:12:00,37.3,31.1,30.29,West,268,2.3,2.3,78,0.00,,,0.00,0.0,WeatherDisplay:10.37,2013-04-18 02:12:00,
2013-04-17 22:17:00,37.1,30.6,30.29,West,268,1.2,1.2,77,0.00,,,0.00,0.0,WeatherDisplay:10.37,2013-04-18 02:17:00,
2013-04-17 22:22:00,37.0,30.5,30.27,West,268,2.0,2.0,77,0.00,,,0.00,0.0,WeatherDisplay:10.37,2013-04-18 02:22:00,
2013-04-17 22:27:00,36.9,30.4,30.27,West,268,2.3,2.3,77,0.00,,,0.00,0.0,WeatherDisplay:10.37,2013-04-18 02:27:00,
2013-04-17 22:32:00,36.7,30.2,30.27,West,268,2.3,2.3,77,0.00,,,0.00,0.0,WeatherDisplay:10.37,2013-04-18 02:32:00,
2013-04-17 22:37:00,36.4,30.2,30.28,West,268,1.2,0.0,78,0.00,,,0.00,0.0,WeatherDisplay:10.37,2013-04-18 02:37:00,
2013-04-17 22:42:00,36.1,29.6,30.28,West,268,1.2,1.2,77,0.00,,,0.00,0.0,WeatherDisplay:10.37,2013-04-18 02:42:00,
2013-04-17 22:47:00,36.0,29.5,30.28,West,268,1.2,1.2,77,0.00,,,0.00,0.0,WeatherDisplay:10.37,2013-04-18 02:47:00,
2013-04-17 22:52:00,35.9,29.7,30.27,West,268,2.3,2.3,78,0.00,,,0.00,0.0,WeatherDisplay:10.37,2013-04-18 02:52:00,
2013-04-17 22:57:00,35.8,29.6,30.27,West,268,0.0,0.0,78,0.00,,,0.00,0.0,WeatherDisplay:10.37,2013-04-18 02:57:00,
2013-04-17 23:02:00,35.6,29.1,30.29,West,268,2.3,2.3,77,0.00,,,0.00,0.0,WeatherDisplay:10.37,2013-04-18 03:02:00,
2013-04-17 23:07:00,35.4,28.9,30.29,West,268,3.5,3.5,77,0.00,,,0.00,0.0,WeatherDisplay:10.37,2013-04-18 03:07:00,
2013-04-17 23:12:00,35.3,28.5,30.29,West,268,2.3,2.3,76,0.00,,,0.00,0.0,WeatherDisplay:10.37,2013-04-18 03:12:00,
2013-04-17 23:17:00,35.3,28.5,30.29,West,268,2.3,2.3,76,0.00,,,0.00,0.0,WeatherDisplay:10.37,2013-04-18 03:17:00,
2013-04-17 23:22:00,35.2,29.0,30.30,West,268,2.3,2.3,78,0.00,,,0.00,0.0,WeatherDisplay:10.37,2013-04-18 03:22:00,
2013-04-17 23:27:00,35.1,28.9,30.30,West,268,1.2,1.2,78,0.00,,,0.00,0.0,WeatherDisplay:10.37,2013-04-18 03:27:00,
2013-04-17 23:32:00,35.0,28.8,30.30,West,268,2.3,2.3,78,0.00,,,0.00,0.0,WeatherDisplay:10.37,2013-04-18 03:32:00,
2013-04-17 23:37:00,34.9,28.7,30.31,West,268,2.3,2.3,78,0.00,,,0.00,0.0,WeatherDisplay:10.37,2013-04-18 03:37:00,
2013-04-17 23:42:00,34.8,28.6,30.31,West,268,1.2,1.2,78,0.00,,,0.00,0.0,WeatherDisplay:10.37,2013-04-18 03:42:00,
2013-04-17 23:47:00,34.6,28.4,30.31,West,268,1.2,1.2,78,0.00,,,0.00,0.0,WeatherDisplay:10.37,2013-04-18 03:47:00,
2013-04-17 23:52:00,34.4,28.2,30.32,West,268,2.3,2.3,78,0.00,,,0.00,0.0,WeatherDisplay:10.37,2013-04-18 03:52:00,
2013-04-17 23:57:00,34.3,28.2,30.32,West,268,0.0,0.0,78,0.00,,,0.00,0.0,WeatherDisplay:10.37,2013-04-18 03:57:00,